sensor_id;sensor_type;location;lat;lon;timestamp;P1;durP1;ratioP1;P2;durP2;ratioP2
59530;SDS011;45349;48.692;8.186;2022-08-11T00:00:09;2.40;;;1.63;;
59530;SDS011;45349;48.692;8.186;2022-08-11T00:02:39;3.07;;;1.77;;
59530;SDS011;45349;48.692;8.186;2022-08-11T00:05:09;1.90;;;1.50;;
59530;SDS011;45349;48.692;8.186;2022-08-11T00:07:41;3.93;;;1.63;;
59530;SDS011;45349;48.692;8.186;2022-08-11T00:10:10;2.63;;;1.87;;
59530;SDS011;45349;48.692;8.186;2022-08-11T00:12:39;2.20;;;1.50;;
59530;SDS011;45349;48.692;8.186;2022-08-11T00:15:09;1.90;;;1.47;;
59530;SDS011;45349;48.692;8.186;2022-08-11T00:17:37;2.50;;;1.60;;
59530;SDS011;45349;48.692;8.186;2022-08-11T00:20:05;2.03;;;1.60;;
59530;SDS011;45349;48.692;8.186;2022-08-11T00:22:35;3.20;;;1.50;;
59530;SDS011;45349;48.692;8.186;2022-08-11T00:25:07;4.40;;;1.50;;
59530;SDS011;45349;48.692;8.186;2022-08-11T00:27:37;2.33;;;1.77;;
59530;SDS011;45349;48.692;8.186;2022-08-11T00:30:05;2.50;;;1.87;;
59530;SDS011;45349;48.692;8.186;2022-08-11T00:32:35;2.43;;;1.70;;
59530;SDS011;45349;48.692;8.186;2022-08-11T00:35:03;5.37;;;1.80;;
59530;SDS011;45349;48.692;8.186;2022-08-11T00:37:51;2.10;;;1.70;;
59530;SDS011;45349;48.692;8.186;2022-08-11T00:40:22;1.97;;;1.60;;
59530;SDS011;45349;48.692;8.186;2022-08-11T00:42:53;2.33;;;1.50;;
59530;SDS011;45349;48.692;8.186;2022-08-11T00:45:28;2.10;;;1.60;;
59530;SDS011;45349;48.692;8.186;2022-08-11T00:48:04;3.07;;;1.80;;
59530;SDS011;45349;48.692;8.186;2022-08-11T00:50:40;3.27;;;1.63;;
59530;SDS011;45349;48.692;8.186;2022-08-11T00:53:29;2.10;;;1.70;;
59530;SDS011;45349;48.692;8.186;2022-08-11T00:59:39;5.53;;;1.70;;
59530;SDS011;45349;48.692;8.186;2022-08-11T01:02:44;3.30;;;2.10;;
59530;SDS011;45349;48.692;8.186;2022-08-11T01:05:33;6.40;;;1.77;;
59530;SDS011;45349;48.692;8.186;2022-08-11T01:08:26;5.90;;;1.73;;
59530;SDS011;45349;48.692;8.186;2022-08-11T01:14:28;3.97;;;1.60;;
59530;SDS011;45349;48.692;8.186;2022-08-11T01:17:38;3.03;;;1.57;;
59530;SDS011;45349;48.692;8.186;2022-08-11T01:20:36;5.50;;;1.70;;
59530;SDS011;45349;48.692;8.186;2022-08-11T01:27:13;2.47;;;1.90;;
59530;SDS011;45349;48.692;8.186;2022-08-11T01:30:02;4.10;;;1.80;;
59530;SDS011;45349;48.692;8.186;2022-08-11T01:39:09;3.50;;;1.90;;
59530;SDS011;45349;48.692;8.186;2022-08-11T01:45:20;5.33;;;2.00;;
59530;SDS011;45349;48.692;8.186;2022-08-11T01:47:58;5.90;;;2.10;;
59530;SDS011;45349;48.692;8.186;2022-08-11T01:50:43;3.43;;;1.90;;
59530;SDS011;45349;48.692;8.186;2022-08-11T01:53:25;3.67;;;1.83;;
59530;SDS011;45349;48.692;8.186;2022-08-11T01:56:03;1.90;;;1.63;;
59530;SDS011;45349;48.692;8.186;2022-08-11T01:58:41;1.93;;;1.73;;
59530;SDS011;45349;48.692;8.186;2022-08-11T02:01:19;2.20;;;1.70;;
59530;SDS011;45349;48.692;8.186;2022-08-11T02:03:58;2.90;;;1.90;;
59530;SDS011;45349;48.692;8.186;2022-08-11T02:06:36;3.50;;;2.00;;
59530;SDS011;45349;48.692;8.186;2022-08-11T02:09:30;3.90;;;1.87;;
59530;SDS011;45349;48.692;8.186;2022-08-11T02:12:15;2.57;;;1.73;;
59530;SDS011;45349;48.692;8.186;2022-08-11T02:14:53;2.47;;;1.83;;
59530;SDS011;45349;48.692;8.186;2022-08-11T02:17:36;2.93;;;1.77;;
59530;SDS011;45349;48.692;8.186;2022-08-11T02:20:11;3.23;;;2.20;;
59530;SDS011;45349;48.692;8.186;2022-08-11T02:23:03;3.90;;;2.00;;
59530;SDS011;45349;48.692;8.186;2022-08-11T02:25:54;3.83;;;2.03;;
59530;SDS011;45349;48.692;8.186;2022-08-11T02:28:31;4.07;;;2.07;;
59530;SDS011;45349;48.692;8.186;2022-08-11T02:31:09;5.00;;;2.37;;
59530;SDS011;45349;48.692;8.186;2022-08-11T02:34:04;3.17;;;1.97;;
59530;SDS011;45349;48.692;8.186;2022-08-11T02:36:41;4.80;;;2.30;;
59530;SDS011;45349;48.692;8.186;2022-08-11T02:39:14;3.87;;;2.10;;
59530;SDS011;45349;48.692;8.186;2022-08-11T02:41:48;3.20;;;1.80;;
59530;SDS011;45349;48.692;8.186;2022-08-11T02:44:43;3.63;;;2.37;;
59530;SDS011;45349;48.692;8.186;2022-08-11T02:47:17;4.17;;;2.00;;
59530;SDS011;45349;48.692;8.186;2022-08-11T02:49:59;5.03;;;1.90;;
59530;SDS011;45349;48.692;8.186;2022-08-11T02:52:30;4.83;;;2.40;;
59530;SDS011;45349;48.692;8.186;2022-08-11T02:57:50;6.37;;;2.43;;
59530;SDS011;45349;48.692;8.186;2022-08-11T03:00:24;3.10;;;2.10;;
59530;SDS011;45349;48.692;8.186;2022-08-11T03:03:09;3.17;;;2.33;;
59530;SDS011;45349;48.692;8.186;2022-08-11T03:08:40;4.10;;;2.50;;
59530;SDS011;45349;48.692;8.186;2022-08-11T03:11:16;5.60;;;2.17;;
59530;SDS011;45349;48.692;8.186;2022-08-11T03:14:13;2.70;;;2.37;;
59530;SDS011;45349;48.692;8.186;2022-08-11T03:17:10;3.10;;;2.17;;
59530;SDS011;45349;48.692;8.186;2022-08-11T03:19:48;2.67;;;2.47;;
59530;SDS011;45349;48.692;8.186;2022-08-11T03:22:28;3.17;;;2.60;;
59530;SDS011;45349;48.692;8.186;2022-08-11T03:25:02;3.30;;;2.50;;
59530;SDS011;45349;48.692;8.186;2022-08-11T03:27:40;5.30;;;2.40;;
59530;SDS011;45349;48.692;8.186;2022-08-11T03:30:15;3.17;;;2.10;;
59530;SDS011;45349;48.692;8.186;2022-08-11T03:32:51;2.53;;;2.33;;
59530;SDS011;45349;48.692;8.186;2022-08-11T03:35:49;4.27;;;2.50;;
59530;SDS011;45349;48.692;8.186;2022-08-11T03:38:29;2.57;;;2.20;;
59530;SDS011;45349;48.692;8.186;2022-08-11T03:41:12;5.47;;;2.03;;
59530;SDS011;45349;48.692;8.186;2022-08-11T03:44:06;5.53;;;2.20;;
59530;SDS011;45349;48.692;8.186;2022-08-11T03:46:48;5.53;;;2.53;;
59530;SDS011;45349;48.692;8.186;2022-08-11T03:49:32;5.87;;;2.43;;
59530;SDS011;45349;48.692;8.186;2022-08-11T03:52:11;2.80;;;2.37;;
59530;SDS011;45349;48.692;8.186;2022-08-11T03:54:46;4.33;;;2.53;;
59530;SDS011;45349;48.692;8.186;2022-08-11T03:57:44;2.57;;;2.30;;
59530;SDS011;45349;48.692;8.186;2022-08-11T04:03:25;3.27;;;2.40;;
59530;SDS011;45349;48.692;8.186;2022-08-11T04:12:17;3.93;;;2.43;;
59530;SDS011;45349;48.692;8.186;2022-08-11T04:15:12;3.30;;;2.37;;
59530;SDS011;45349;48.692;8.186;2022-08-11T04:21:46;4.10;;;2.80;;
59530;SDS011;45349;48.692;8.186;2022-08-11T04:24:26;4.77;;;2.30;;
59530;SDS011;45349;48.692;8.186;2022-08-11T04:27:19;3.00;;;2.07;;
59530;SDS011;45349;48.692;8.186;2022-08-11T04:30:03;2.50;;;2.30;;
59530;SDS011;45349;48.692;8.186;2022-08-11T04:35:44;5.50;;;2.70;;
59530;SDS011;45349;48.692;8.186;2022-08-11T04:38:33;2.90;;;2.60;;
59530;SDS011;45349;48.692;8.186;2022-08-11T04:41:18;3.37;;;2.20;;
59530;SDS011;45349;48.692;8.186;2022-08-11T04:47:09;4.13;;;2.70;;
59530;SDS011;45349;48.692;8.186;2022-08-11T04:53:37;3.80;;;2.47;;
59530;SDS011;45349;48.692;8.186;2022-08-11T04:56:30;5.13;;;2.60;;
59530;SDS011;45349;48.692;8.186;2022-08-11T05:03:02;5.27;;;2.37;;
59530;SDS011;45349;48.692;8.186;2022-08-11T05:06:00;4.50;;;2.57;;
59530;SDS011;45349;48.692;8.186;2022-08-11T05:14:54;2.83;;;2.43;;
59530;SDS011;45349;48.692;8.186;2022-08-11T05:17:41;7.63;;;2.53;;
59530;SDS011;45349;48.692;8.186;2022-08-11T05:20:29;4.93;;;2.20;;
59530;SDS011;45349;48.692;8.186;2022-08-11T05:23:13;4.90;;;2.73;;
59530;SDS011;45349;48.692;8.186;2022-08-11T05:26:00;5.43;;;2.37;;
59530;SDS011;45349;48.692;8.186;2022-08-11T05:28:52;4.63;;;2.63;;
59530;SDS011;45349;48.692;8.186;2022-08-11T05:31:40;5.50;;;2.60;;
59530;SDS011;45349;48.692;8.186;2022-08-11T05:34:28;4.07;;;2.23;;
59530;SDS011;45349;48.692;8.186;2022-08-11T05:37:18;7.13;;;2.20;;
59530;SDS011;45349;48.692;8.186;2022-08-11T05:39:50;3.33;;;2.53;;
59530;SDS011;45349;48.692;8.186;2022-08-11T05:42:38;3.40;;;2.33;;
59530;SDS011;45349;48.692;8.186;2022-08-11T05:45:27;3.50;;;2.23;;
59530;SDS011;45349;48.692;8.186;2022-08-11T05:48:12;7.57;;;2.77;;
59530;SDS011;45349;48.692;8.186;2022-08-11T05:50:57;6.30;;;2.43;;
59530;SDS011;45349;48.692;8.186;2022-08-11T05:53:48;2.80;;;2.37;;
59530;SDS011;45349;48.692;8.186;2022-08-11T05:56:41;8.70;;;2.67;;
59530;SDS011;45349;48.692;8.186;2022-08-11T05:59:11;6.93;;;2.33;;
59530;SDS011;45349;48.692;8.186;2022-08-11T06:01:41;10.90;;;2.50;;
59530;SDS011;45349;48.692;8.186;2022-08-11T06:04:13;12.57;;;2.40;;
59530;SDS011;45349;48.692;8.186;2022-08-11T06:06:49;5.70;;;2.70;;
59530;SDS011;45349;48.692;8.186;2022-08-11T06:09:25;5.27;;;2.93;;
59530;SDS011;45349;48.692;8.186;2022-08-11T06:11:54;3.77;;;2.67;;
59530;SDS011;45349;48.692;8.186;2022-08-11T06:14:24;7.17;;;2.70;;
59530;SDS011;45349;48.692;8.186;2022-08-11T06:16:54;16.43;;;2.50;;
59530;SDS011;45349;48.692;8.186;2022-08-11T06:19:30;9.83;;;2.60;;
59530;SDS011;45349;48.692;8.186;2022-08-11T06:21:58;4.13;;;2.17;;
59530;SDS011;45349;48.692;8.186;2022-08-11T06:24:27;6.37;;;2.40;;
59530;SDS011;45349;48.692;8.186;2022-08-11T06:26:56;5.57;;;2.20;;
59530;SDS011;45349;48.692;8.186;2022-08-11T06:29:24;8.77;;;2.73;;
59530;SDS011;45349;48.692;8.186;2022-08-11T06:31:55;5.70;;;2.43;;
59530;SDS011;45349;48.692;8.186;2022-08-11T06:34:37;4.13;;;2.13;;
59530;SDS011;45349;48.692;8.186;2022-08-11T06:37:18;4.33;;;2.37;;
59530;SDS011;45349;48.692;8.186;2022-08-11T06:39:50;2.67;;;2.20;;
59530;SDS011;45349;48.692;8.186;2022-08-11T06:45:15;5.47;;;2.20;;
59530;SDS011;45349;48.692;8.186;2022-08-11T06:47:53;5.07;;;2.17;;
59530;SDS011;45349;48.692;8.186;2022-08-11T06:50:25;2.30;;;2.10;;
59530;SDS011;45349;48.692;8.186;2022-08-11T06:53:10;3.60;;;2.20;;
59530;SDS011;45349;48.692;8.186;2022-08-11T06:55:41;3.47;;;2.20;;
59530;SDS011;45349;48.692;8.186;2022-08-11T06:58:28;5.17;;;2.50;;
59530;SDS011;45349;48.692;8.186;2022-08-11T07:01:16;5.03;;;2.30;;
59530;SDS011;45349;48.692;8.186;2022-08-11T07:03:51;2.80;;;1.97;;
59530;SDS011;45349;48.692;8.186;2022-08-11T07:06:27;7.33;;;2.27;;
59530;SDS011;45349;48.692;8.186;2022-08-11T07:09:40;3.47;;;2.27;;
59530;SDS011;45349;48.692;8.186;2022-08-11T07:12:46;2.80;;;2.10;;
59530;SDS011;45349;48.692;8.186;2022-08-11T07:15:34;3.10;;;1.73;;
59530;SDS011;45349;48.692;8.186;2022-08-11T07:18:11;2.43;;;2.10;;
59530;SDS011;45349;48.692;8.186;2022-08-11T07:21:14;4.67;;;2.20;;
59530;SDS011;45349;48.692;8.186;2022-08-11T07:24:06;3.27;;;2.30;;
59530;SDS011;45349;48.692;8.186;2022-08-11T07:26:54;5.43;;;2.00;;
59530;SDS011;45349;48.692;8.186;2022-08-11T07:29:40;5.33;;;2.00;;
59530;SDS011;45349;48.692;8.186;2022-08-11T07:32:15;3.37;;;2.03;;
59530;SDS011;45349;48.692;8.186;2022-08-11T07:34:49;6.37;;;2.20;;
59530;SDS011;45349;48.692;8.186;2022-08-11T07:37:23;3.93;;;1.93;;
59530;SDS011;45349;48.692;8.186;2022-08-11T07:39:54;3.57;;;2.20;;
59530;SDS011;45349;48.692;8.186;2022-08-11T07:42:26;7.07;;;2.30;;
59530;SDS011;45349;48.692;8.186;2022-08-11T07:44:55;3.37;;;2.00;;
59530;SDS011;45349;48.692;8.186;2022-08-11T07:47:40;2.83;;;1.88;;
59530;SDS011;45349;48.692;8.186;2022-08-11T07:50:25;5.40;;;2.00;;
59530;SDS011;45349;48.692;8.186;2022-08-11T07:53:13;3.90;;;2.00;;
59530;SDS011;45349;48.692;8.186;2022-08-11T07:55:41;5.80;;;2.13;;
59530;SDS011;45349;48.692;8.186;2022-08-11T07:58:09;2.27;;;1.93;;
59530;SDS011;45349;48.692;8.186;2022-08-11T08:00:55;4.83;;;1.93;;
59530;SDS011;45349;48.692;8.186;2022-08-11T08:03:41;2.73;;;1.90;;
59530;SDS011;45349;48.692;8.186;2022-08-11T08:06:27;2.43;;;1.53;;
59530;SDS011;45349;48.692;8.186;2022-08-11T08:09:14;2.37;;;1.73;;
59530;SDS011;45349;48.692;8.186;2022-08-11T08:12:02;2.80;;;1.70;;
59530;SDS011;45349;48.692;8.186;2022-08-11T08:14:48;3.90;;;1.90;;
59530;SDS011;45349;48.692;8.186;2022-08-11T08:17:34;5.15;;;1.80;;
59530;SDS011;45349;48.692;8.186;2022-08-11T08:20:33;4.90;;;1.77;;
59530;SDS011;45349;48.692;8.186;2022-08-11T08:23:02;3.20;;;1.65;;
59530;SDS011;45349;48.692;8.186;2022-08-11T08:25:32;3.60;;;2.00;;
59530;SDS011;45349;48.692;8.186;2022-08-11T08:28:01;2.13;;;1.70;;
59530;SDS011;45349;48.692;8.186;2022-08-11T08:30:50;7.13;;;1.87;;
59530;SDS011;45349;48.692;8.186;2022-08-11T08:33:18;1.60;;;1.47;;
59530;SDS011;45349;48.692;8.186;2022-08-11T08:35:47;2.75;;;1.75;;
59530;SDS011;45349;48.692;8.186;2022-08-11T08:38:35;4.75;;;1.98;;
59530;SDS011;45349;48.692;8.186;2022-08-11T08:41:04;6.40;;;2.20;;
59530;SDS011;45349;48.692;8.186;2022-08-11T08:43:32;8.23;;;2.15;;
59530;SDS011;45349;48.692;8.186;2022-08-11T08:46:01;3.13;;;2.10;;
59530;SDS011;45349;48.692;8.186;2022-08-11T08:48:34;3.53;;;1.90;;
59530;SDS011;45349;48.692;8.186;2022-08-11T08:51:03;3.90;;;1.92;;
59530;SDS011;45349;48.692;8.186;2022-08-11T08:53:52;2.40;;;1.80;;
59530;SDS011;45349;48.692;8.186;2022-08-11T08:56:26;2.33;;;1.83;;
59530;SDS011;45349;48.692;8.186;2022-08-11T08:58:54;5.45;;;2.00;;
59530;SDS011;45349;48.692;8.186;2022-08-11T09:01:24;2.43;;;2.07;;
59530;SDS011;45349;48.692;8.186;2022-08-11T09:03:54;5.27;;;1.90;;
59530;SDS011;45349;48.692;8.186;2022-08-11T09:06:21;2.88;;;2.35;;
59530;SDS011;45349;48.692;8.186;2022-08-11T09:08:48;3.20;;;1.90;;
59530;SDS011;45349;48.692;8.186;2022-08-11T09:11:15;3.50;;;2.10;;
59530;SDS011;45349;48.692;8.186;2022-08-11T09:14:02;3.40;;;1.85;;
59530;SDS011;45349;48.692;8.186;2022-08-11T09:16:30;4.22;;;2.00;;
59530;SDS011;45349;48.692;8.186;2022-08-11T09:18:57;5.38;;;1.98;;
59530;SDS011;45349;48.692;8.186;2022-08-11T09:21:26;2.33;;;1.80;;
59530;SDS011;45349;48.692;8.186;2022-08-11T09:23:53;3.40;;;1.90;;
59530;SDS011;45349;48.692;8.186;2022-08-11T09:26:39;3.92;;;1.88;;
59530;SDS011;45349;48.692;8.186;2022-08-11T09:29:26;4.45;;;2.10;;
59530;SDS011;45349;48.692;8.186;2022-08-11T09:31:54;3.90;;;1.90;;
59530;SDS011;45349;48.692;8.186;2022-08-11T09:34:22;5.57;;;2.03;;
59530;SDS011;45349;48.692;8.186;2022-08-11T09:36:51;1.95;;;1.75;;
59530;SDS011;45349;48.692;8.186;2022-08-11T09:39:36;3.07;;;1.60;;
59530;SDS011;45349;48.692;8.186;2022-08-11T09:42:25;2.72;;;1.70;;
59530;SDS011;45349;48.692;8.186;2022-08-11T09:45:15;5.47;;;1.60;;
59530;SDS011;45349;48.692;8.186;2022-08-11T09:47:41;3.07;;;1.87;;
59530;SDS011;45349;48.692;8.186;2022-08-11T09:50:09;3.35;;;1.65;;
59530;SDS011;45349;48.692;8.186;2022-08-11T09:52:37;3.00;;;1.83;;
59530;SDS011;45349;48.692;8.186;2022-08-11T09:55:06;4.93;;;1.83;;
59530;SDS011;45349;48.692;8.186;2022-08-11T09:57:37;2.30;;;1.90;;
59530;SDS011;45349;48.692;8.186;2022-08-11T10:00:36;5.65;;;1.55;;
59530;SDS011;45349;48.692;8.186;2022-08-11T10:03:05;4.55;;;1.80;;
59530;SDS011;45349;48.692;8.186;2022-08-11T10:05:36;2.67;;;1.58;;
59530;SDS011;45349;48.692;8.186;2022-08-11T10:08:22;2.67;;;1.80;;
59530;SDS011;45349;48.692;8.186;2022-08-11T10:10:53;3.15;;;1.95;;
59530;SDS011;45349;48.692;8.186;2022-08-11T10:13:22;2.25;;;1.80;;
59530;SDS011;45349;48.692;8.186;2022-08-11T10:16:00;2.53;;;1.70;;
59530;SDS011;45349;48.692;8.186;2022-08-11T10:18:29;5.75;;;1.80;;
59530;SDS011;45349;48.692;8.186;2022-08-11T10:21:14;3.50;;;1.65;;
59530;SDS011;45349;48.692;8.186;2022-08-11T10:23:48;3.13;;;1.73;;
59530;SDS011;45349;48.692;8.186;2022-08-11T10:26:35;2.40;;;1.83;;
59530;SDS011;45349;48.692;8.186;2022-08-11T10:29:23;5.03;;;1.95;;
59530;SDS011;45349;48.692;8.186;2022-08-11T10:32:10;4.15;;;1.90;;
59530;SDS011;45349;48.692;8.186;2022-08-11T10:34:56;4.23;;;1.70;;
59530;SDS011;45349;48.692;8.186;2022-08-11T10:37:26;3.78;;;1.88;;
59530;SDS011;45349;48.692;8.186;2022-08-11T10:39:58;3.37;;;1.80;;
59530;SDS011;45349;48.692;8.186;2022-08-11T10:42:27;3.38;;;1.60;;
59530;SDS011;45349;48.692;8.186;2022-08-11T10:45:12;2.45;;;1.90;;
59530;SDS011;45349;48.692;8.186;2022-08-11T10:47:59;2.40;;;1.90;;
59530;SDS011;45349;48.692;8.186;2022-08-11T10:50:27;2.92;;;1.80;;
59530;SDS011;45349;48.692;8.186;2022-08-11T10:53:12;6.05;;;2.15;;
59530;SDS011;45349;48.692;8.186;2022-08-11T10:55:58;2.75;;;2.08;;
59530;SDS011;45349;48.692;8.186;2022-08-11T10:58:44;3.25;;;1.90;;
59530;SDS011;45349;48.692;8.186;2022-08-11T11:01:14;3.65;;;1.98;;
59530;SDS011;45349;48.692;8.186;2022-08-11T11:03:43;3.03;;;1.90;;
59530;SDS011;45349;48.692;8.186;2022-08-11T11:06:13;3.45;;;1.65;;
59530;SDS011;45349;48.692;8.186;2022-08-11T11:08:51;4.85;;;1.92;;
59530;SDS011;45349;48.692;8.186;2022-08-11T11:11:22;2.50;;;1.80;;
59530;SDS011;45349;48.692;8.186;2022-08-11T11:14:13;4.15;;;1.92;;
59530;SDS011;45349;48.692;8.186;2022-08-11T11:17:00;3.03;;;2.08;;
59530;SDS011;45349;48.692;8.186;2022-08-11T11:19:47;2.47;;;1.83;;
59530;SDS011;45349;48.692;8.186;2022-08-11T11:22:18;3.10;;;1.95;;
59530;SDS011;45349;48.692;8.186;2022-08-11T11:25:16;4.35;;;2.10;;
59530;SDS011;45349;48.692;8.186;2022-08-11T11:27:51;4.30;;;1.90;;
59530;SDS011;45349;48.692;8.186;2022-08-11T11:30:27;3.38;;;1.90;;
59530;SDS011;45349;48.692;8.186;2022-08-11T11:33:03;3.35;;;2.00;;
59530;SDS011;45349;48.692;8.186;2022-08-11T11:35:40;5.40;;;2.08;;
59530;SDS011;45349;48.692;8.186;2022-08-11T11:38:18;6.30;;;1.90;;
59530;SDS011;45349;48.692;8.186;2022-08-11T11:40:45;4.70;;;1.88;;
59530;SDS011;45349;48.692;8.186;2022-08-11T11:43:34;3.30;;;1.83;;
59530;SDS011;45349;48.692;8.186;2022-08-11T11:46:02;3.72;;;1.90;;
59530;SDS011;45349;48.692;8.186;2022-08-11T11:48:32;7.15;;;2.10;;
59530;SDS011;45349;48.692;8.186;2022-08-11T11:51:02;2.53;;;1.90;;
59530;SDS011;45349;48.692;8.186;2022-08-11T11:53:29;2.35;;;1.92;;
59530;SDS011;45349;48.692;8.186;2022-08-11T11:55:56;3.72;;;2.10;;
59530;SDS011;45349;48.692;8.186;2022-08-11T11:58:25;3.55;;;2.15;;
59530;SDS011;45349;48.692;8.186;2022-08-11T12:01:10;2.92;;;1.80;;
59530;SDS011;45349;48.692;8.186;2022-08-11T12:03:42;3.85;;;1.80;;
59530;SDS011;45349;48.692;8.186;2022-08-11T12:06:11;4.85;;;1.88;;
59530;SDS011;45349;48.692;8.186;2022-08-11T12:08:39;2.83;;;1.60;;
59530;SDS011;45349;48.692;8.186;2022-08-11T12:11:08;5.15;;;2.15;;
59530;SDS011;45349;48.692;8.186;2022-08-11T12:13:54;3.70;;;1.95;;
59530;SDS011;45349;48.692;8.186;2022-08-11T12:16:24;2.42;;;1.88;;
59530;SDS011;45349;48.692;8.186;2022-08-11T12:18:52;4.57;;;2.28;;
59530;SDS011;45349;48.692;8.186;2022-08-11T12:21:23;2.75;;;1.90;;
59530;SDS011;45349;48.692;8.186;2022-08-11T12:23:51;3.30;;;1.73;;
59530;SDS011;45349;48.692;8.186;2022-08-11T12:26:39;3.85;;;1.85;;
59530;SDS011;45349;48.692;8.186;2022-08-11T12:29:23;3.47;;;2.17;;
59530;SDS011;45349;48.692;8.186;2022-08-11T12:31:53;4.97;;;2.45;;
59530;SDS011;45349;48.692;8.186;2022-08-11T12:34:24;4.28;;;2.10;;
59530;SDS011;45349;48.692;8.186;2022-08-11T12:36:55;4.55;;;2.20;;
59530;SDS011;45349;48.692;8.186;2022-08-11T12:39:24;3.88;;;2.13;;
59530;SDS011;45349;48.692;8.186;2022-08-11T12:42:07;4.25;;;1.70;;
59530;SDS011;45349;48.692;8.186;2022-08-11T12:44:53;3.65;;;1.98;;
59530;SDS011;45349;48.692;8.186;2022-08-11T12:47:41;4.28;;;2.30;;
59530;SDS011;45349;48.692;8.186;2022-08-11T12:50:30;2.55;;;1.88;;
59530;SDS011;45349;48.692;8.186;2022-08-11T12:53:16;4.28;;;2.13;;
59530;SDS011;45349;48.692;8.186;2022-08-11T12:55:48;2.92;;;1.88;;
59530;SDS011;45349;48.692;8.186;2022-08-11T12:58:34;4.47;;;2.00;;
59530;SDS011;45349;48.692;8.186;2022-08-11T13:01:05;2.85;;;2.10;;
59530;SDS011;45349;48.692;8.186;2022-08-11T13:03:50;4.72;;;1.95;;
59530;SDS011;45349;48.692;8.186;2022-08-11T13:06:37;3.47;;;2.05;;
59530;SDS011;45349;48.692;8.186;2022-08-11T13:09:37;4.22;;;2.00;;
59530;SDS011;45349;48.692;8.186;2022-08-11T13:12:06;3.10;;;1.90;;
59530;SDS011;45349;48.692;8.186;2022-08-11T13:14:52;4.10;;;2.38;;
59530;SDS011;45349;48.692;8.186;2022-08-11T13:17:37;7.03;;;2.10;;
59530;SDS011;45349;48.692;8.186;2022-08-11T13:20:06;2.72;;;2.03;;
59530;SDS011;45349;48.692;8.186;2022-08-11T13:22:36;2.42;;;2.20;;
59530;SDS011;45349;48.692;8.186;2022-08-11T13:25:06;2.10;;;1.90;;
59530;SDS011;45349;48.692;8.186;2022-08-11T13:27:34;2.65;;;2.10;;
59530;SDS011;45349;48.692;8.186;2022-08-11T13:30:02;1.92;;;1.70;;
59530;SDS011;45349;48.692;8.186;2022-08-11T13:32:48;6.00;;;1.90;;
59530;SDS011;45349;48.692;8.186;2022-08-11T13:35:16;3.50;;;1.77;;
59530;SDS011;45349;48.692;8.186;2022-08-11T13:37:44;5.63;;;1.88;;
59530;SDS011;45349;48.692;8.186;2022-08-11T13:40:13;3.42;;;1.70;;
59530;SDS011;45349;48.692;8.186;2022-08-11T13:42:43;3.55;;;2.00;;
59530;SDS011;45349;48.692;8.186;2022-08-11T13:45:10;3.92;;;1.83;;
59530;SDS011;45349;48.692;8.186;2022-08-11T13:47:38;3.63;;;1.88;;
59530;SDS011;45349;48.692;8.186;2022-08-11T13:50:06;2.53;;;1.80;;
59530;SDS011;45349;48.692;8.186;2022-08-11T13:52:34;6.57;;;2.00;;
59530;SDS011;45349;48.692;8.186;2022-08-11T13:55:05;1.80;;;1.70;;
59530;SDS011;45349;48.692;8.186;2022-08-11T13:57:35;5.65;;;1.98;;
59530;SDS011;45349;48.692;8.186;2022-08-11T14:00:05;2.95;;;1.95;;
59530;SDS011;45349;48.692;8.186;2022-08-11T14:02:39;4.93;;;1.90;;
59530;SDS011;45349;48.692;8.186;2022-08-11T14:05:09;4.07;;;2.30;;
59530;SDS011;45349;48.692;8.186;2022-08-11T14:07:41;1.85;;;1.60;;
59530;SDS011;45349;48.692;8.186;2022-08-11T14:10:13;3.80;;;2.05;;
59530;SDS011;45349;48.692;8.186;2022-08-11T14:12:45;2.67;;;1.90;;
59530;SDS011;45349;48.692;8.186;2022-08-11T14:15:34;4.75;;;1.90;;
59530;SDS011;45349;48.692;8.186;2022-08-11T14:18:02;3.22;;;1.90;;
59530;SDS011;45349;48.692;8.186;2022-08-11T14:20:31;2.55;;;2.13;;
59530;SDS011;45349;48.692;8.186;2022-08-11T14:23:14;4.35;;;2.00;;
59530;SDS011;45349;48.692;8.186;2022-08-11T14:25:42;3.08;;;1.60;;
59530;SDS011;45349;48.692;8.186;2022-08-11T14:28:28;5.15;;;1.83;;
59530;SDS011;45349;48.692;8.186;2022-08-11T14:30:59;4.03;;;1.80;;
59530;SDS011;45349;48.692;8.186;2022-08-11T14:33:26;4.07;;;1.98;;
59530;SDS011;45349;48.692;8.186;2022-08-11T14:35:54;4.93;;;1.98;;
59530;SDS011;45349;48.692;8.186;2022-08-11T14:38:21;2.75;;;2.20;;
59530;SDS011;45349;48.692;8.186;2022-08-11T14:40:48;5.00;;;1.90;;
59530;SDS011;45349;48.692;8.186;2022-08-11T14:43:54;5.35;;;2.08;;
59530;SDS011;45349;48.692;8.186;2022-08-11T14:46:40;5.03;;;1.90;;
59530;SDS011;45349;48.692;8.186;2022-08-11T14:49:25;2.67;;;2.00;;
59530;SDS011;45349;48.692;8.186;2022-08-11T14:51:54;3.78;;;2.20;;
59530;SDS011;45349;48.692;8.186;2022-08-11T14:54:23;2.08;;;1.88;;
59530;SDS011;45349;48.692;8.186;2022-08-11T14:57:10;2.63;;;1.58;;
59530;SDS011;45349;48.692;8.186;2022-08-11T14:59:40;4.70;;;1.80;;
59530;SDS011;45349;48.692;8.186;2022-08-11T15:02:08;3.35;;;1.73;;
59530;SDS011;45349;48.692;8.186;2022-08-11T15:04:54;5.32;;;1.40;;
59530;SDS011;45349;48.692;8.186;2022-08-11T15:07:23;2.67;;;1.70;;
59530;SDS011;45349;48.692;8.186;2022-08-11T15:09:54;2.95;;;1.88;;
59530;SDS011;45349;48.692;8.186;2022-08-11T15:12:22;6.63;;;1.70;;
59530;SDS011;45349;48.692;8.186;2022-08-11T15:14:51;4.38;;;1.77;;
59530;SDS011;45349;48.692;8.186;2022-08-11T15:17:35;3.13;;;2.08;;
59530;SDS011;45349;48.692;8.186;2022-08-11T15:20:05;5.60;;;2.00;;
59530;SDS011;45349;48.692;8.186;2022-08-11T15:23:12;3.88;;;1.88;;
59530;SDS011;45349;48.692;8.186;2022-08-11T15:25:58;2.50;;;1.73;;
59530;SDS011;45349;48.692;8.186;2022-08-11T15:28:27;5.43;;;1.77;;
59530;SDS011;45349;48.692;8.186;2022-08-11T15:31:15;3.65;;;1.90;;
59530;SDS011;45349;48.692;8.186;2022-08-11T15:34:02;3.70;;;1.85;;
59530;SDS011;45349;48.692;8.186;2022-08-11T15:36:49;4.50;;;1.80;;
59530;SDS011;45349;48.692;8.186;2022-08-11T15:39:40;2.55;;;1.77;;
59530;SDS011;45349;48.692;8.186;2022-08-11T15:42:33;2.92;;;1.70;;
59530;SDS011;45349;48.692;8.186;2022-08-11T15:45:23;3.38;;;1.80;;
59530;SDS011;45349;48.692;8.186;2022-08-11T15:48:10;3.40;;;1.65;;
59530;SDS011;45349;48.692;8.186;2022-08-11T15:50:41;3.97;;;1.90;;
59530;SDS011;45349;48.692;8.186;2022-08-11T15:53:16;2.40;;;1.70;;
59530;SDS011;45349;48.692;8.186;2022-08-11T15:55:58;2.60;;;2.03;;
59530;SDS011;45349;48.692;8.186;2022-08-11T15:58:31;5.03;;;1.90;;
59530;SDS011;45349;48.692;8.186;2022-08-11T16:01:20;1.55;;;1.42;;
59530;SDS011;45349;48.692;8.186;2022-08-11T16:04:09;2.10;;;1.88;;
59530;SDS011;45349;48.692;8.186;2022-08-11T16:06:43;2.47;;;1.75;;
59530;SDS011;45349;48.692;8.186;2022-08-11T16:09:13;6.63;;;1.60;;
59530;SDS011;45349;48.692;8.186;2022-08-11T16:11:42;5.15;;;1.48;;
59530;SDS011;45349;48.692;8.186;2022-08-11T16:14:11;4.63;;;1.67;;
59530;SDS011;45349;48.692;8.186;2022-08-11T16:16:58;3.05;;;1.70;;
59530;SDS011;45349;48.692;8.186;2022-08-11T16:19:28;2.97;;;1.80;;
59530;SDS011;45349;48.692;8.186;2022-08-11T16:22:00;3.05;;;1.63;;
59530;SDS011;45349;48.692;8.186;2022-08-11T16:24:29;5.28;;;1.85;;
59530;SDS011;45349;48.692;8.186;2022-08-11T16:26:57;4.10;;;1.60;;
59530;SDS011;45349;48.692;8.186;2022-08-11T16:29:26;5.20;;;1.55;;
59530;SDS011;45349;48.692;8.186;2022-08-11T16:31:56;3.15;;;1.80;;
59530;SDS011;45349;48.692;8.186;2022-08-11T16:34:44;6.43;;;1.92;;
59530;SDS011;45349;48.692;8.186;2022-08-11T16:37:32;2.30;;;1.50;;
59530;SDS011;45349;48.692;8.186;2022-08-11T16:40:18;2.05;;;1.60;;
59530;SDS011;45349;48.692;8.186;2022-08-11T16:42:46;3.13;;;1.42;;
59530;SDS011;45349;48.692;8.186;2022-08-11T16:45:33;2.25;;;1.70;;
59530;SDS011;45349;48.692;8.186;2022-08-11T16:48:19;2.63;;;1.60;;
59530;SDS011;45349;48.692;8.186;2022-08-11T16:50:48;1.73;;;1.50;;
59530;SDS011;45349;48.692;8.186;2022-08-11T16:53:16;5.35;;;1.77;;
59530;SDS011;45349;48.692;8.186;2022-08-11T16:55:43;2.28;;;1.52;;